Time;durP1;ratioP1;P1;durP2;ratioP2;P2;SDS_P1;SDS_P2;PMS_P1;PMS_P2;Temp;Humidity;BMP_temperature;BMP_pressure;BME280_temperature;BME280_humidity;BME280_pressure;Samples;Min_cycle;Max_cycle;Signal;HPM_P1;HPM_P2
2022/05/13 00:00:48;;;;;;;3.03;1.48;;;23.80;33.60;;;;;;5135694;27;20141;-37
2022/05/13 00:03:14;;;;;;;2.78;1.30;;;23.80;33.70;;;;;;5136160;27;20467;-37
2022/05/13 00:05:40;;;;;;;3.17;1.10;;;23.80;33.60;;;;;;5134827;27;20027;-38
2022/05/13 00:08:07;;;;;;;2.85;1.17;;;23.80;34.10;;;;;;5134693;27;20030;-37
2022/05/13 00:10:35;;;;;;;3.13;1.40;;;23.80;33.70;;;;;;5134794;28;20027;-38
2022/05/13 00:13:01;;;;;;;3.97;1.33;;;23.80;33.70;;;;;;5135896;27;20470;-36
2022/05/13 00:15:29;;;;;;;3.10;1.27;;;23.80;33.80;;;;;;5135724;27;20021;-38
2022/05/13 00:17:55;;;;;;;3.58;1.30;;;23.80;33.80;;;;;;5136466;27;20078;-38
2022/05/13 00:20:21;;;;;;;2.33;1.08;;;23.80;33.80;;;;;;5135885;27;20037;-39
2022/05/13 00:22:52;;;;;;;2.42;1.10;;;23.80;33.80;;;;;;5136366;27;20024;-39
2022/05/13 00:25:22;;;;;;;2.83;1.20;;;23.80;33.80;;;;;;5137319;27;20031;-37
2022/05/13 00:27:49;;;;;;;3.50;1.58;;;23.80;33.90;;;;;;5136340;27;20015;-38
2022/05/13 00:30:15;;;;;;;2.95;1.20;;;23.80;33.90;;;;;;5135850;28;20044;-37
2022/05/13 00:32:41;;;;;;;3.45;1.30;;;23.70;33.90;;;;;;5135244;27;20515;-37
2022/05/13 00:35:07;;;;;;;4.20;1.20;;;23.80;34.00;;;;;;5135663;27;20015;-39
2022/05/13 00:37:34;;;;;;;4.47;1.42;;;23.80;34.00;;;;;;5136500;28;20012;-38
2022/05/13 00:40:02;;;;;;;4.85;1.42;;;23.70;33.90;;;;;;5136499;27;20043;-39
2022/05/13 00:42:28;;;;;;;2.28;0.98;;;23.80;34.10;;;;;;5136746;27;20019;-37
2022/05/13 00:44:54;;;;;;;2.60;1.30;;;23.70;34.00;;;;;;5134494;28;20035;-37
2022/05/13 00:47:21;;;;;;;3.38;1.15;;;23.80;34.10;;;;;;5136391;28;20030;-36
2022/05/13 00:49:47;;;;;;;3.63;1.20;;;23.70;34.10;;;;;;5136001;27;20015;-38
2022/05/13 00:52:13;;;;;;;3.47;1.20;;;23.80;34.20;;;;;;5134644;28;20018;-37
2022/05/13 00:54:39;;;;;;;3.03;1.13;;;23.70;34.20;;;;;;5134295;28;20016;-38
2022/05/13 00:57:05;;;;;;;4.00;1.50;;;23.80;34.20;;;;;;5135773;28;20029;-37
2022/05/13 00:59:32;;;;;;;3.17;1.23;;;23.70;34.20;;;;;;5136016;27;20011;-39
2022/05/13 01:01:59;;;;;;;3.90;1.25;;;23.70;34.20;;;;;;5135209;28;20007;-37
2022/05/13 01:04:26;;;;;;;3.00;1.17;;;23.70;34.30;;;;;;5136073;28;20027;-37
2022/05/13 01:06:54;;;;;;;6.22;1.42;;;23.70;34.30;;;;;;5134262;28;20407;-38
2022/05/13 01:09:20;;;;;;;3.40;1.30;;;23.70;34.40;;;;;;5134204;28;20018;-38
2022/05/13 01:11:46;;;;;;;3.53;1.20;;;23.70;34.30;;;;;;5133687;28;20106;-37
2022/05/13 01:14:20;;;;;;;3.80;1.20;;;23.70;34.40;;;;;;5117282;28;20481;-36
2022/05/13 01:19:31;;;;;;;3.35;1.17;;;23.70;34.40;;;;;;5137448;27;20027;-37
2022/05/13 01:22:10;;;;;;;2.70;1.23;;;23.70;34.50;;;;;;5138685;27;20074;-37
2022/05/13 01:24:37;;;;;;;3.90;1.20;;;23.70;34.50;;;;;;5138911;27;20080;-38
2022/05/13 01:27:05;;;;;;;3.15;1.30;;;23.70;34.60;;;;;;5138636;27;20034;-39
2022/05/13 01:29:31;;;;;;;3.25;1.20;;;23.70;34.60;;;;;;5138943;27;20018;-38
2022/05/13 01:31:58;;;;;;;2.83;1.27;;;23.70;34.60;;;;;;5139533;27;20109;-40
2022/05/13 01:34:24;;;;;;;4.10;1.63;;;23.70;34.70;;;;;;5140332;27;20007;-37
2022/05/13 01:36:50;;;;;;;4.00;1.27;;;23.60;34.70;;;;;;5138724;27;20458;-38
2022/05/13 01:39:16;;;;;;;5.13;1.70;;;23.60;34.70;;;;;;5139517;27;20461;-39
2022/05/13 01:41:43;;;;;;;6.95;1.98;;;23.60;34.80;;;;;;5139603;27;20148;-38
2022/05/13 01:44:09;;;;;;;2.80;1.10;;;23.60;34.80;;;;;;5138995;27;20007;-37
2022/05/13 01:46:35;;;;;;;3.38;1.45;;;23.60;34.80;;;;;;5138716;27;20022;-37
2022/05/13 01:49:01;;;;;;;4.18;1.40;;;23.60;34.80;;;;;;5138466;27;20080;-38
2022/05/13 01:51:27;;;;;;;4.70;1.42;;;23.60;34.90;;;;;;5138676;27;20023;-39
2022/05/13 01:53:52;;;;;;;3.65;1.30;;;23.60;34.90;;;;;;5137151;27;20359;-39
2022/05/13 01:56:19;;;;;;;4.50;1.20;;;23.60;35.00;;;;;;5138351;27;20102;-38
2022/05/13 01:58:45;;;;;;;4.07;1.30;;;23.60;35.00;;;;;;5138382;27;20039;-37
2022/05/13 02:01:11;;;;;;;5.50;1.40;;;23.60;35.00;;;;;;5138206;27;20025;-38
2022/05/13 02:03:45;;;;;;;3.90;1.35;;;23.60;35.10;;;;;;5138135;27;20138;-38
2022/05/13 02:06:13;;;;;;;5.20;1.40;;;23.60;35.10;;;;;;5138169;27;20019;-37
2022/05/13 02:08:39;;;;;;;4.25;1.30;;;23.60;35.10;;;;;;5138154;27;20048;-39
2022/05/13 02:11:05;;;;;;;3.85;1.30;;;23.60;35.20;;;;;;5136819;27;20035;-37
2022/05/13 02:13:31;;;;;;;4.07;1.38;;;23.60;35.20;;;;;;5136931;27;20035;-37
2022/05/13 02:15:56;;;;;;;3.53;1.27;;;23.60;35.20;;;;;;5138633;27;20018;-37
2022/05/13 02:18:23;;;;;;;4.57;1.30;;;23.60;35.30;;;;;;5138640;27;20429;-38
2022/05/13 02:20:48;;;;;;;4.45;1.35;;;23.60;35.30;;;;;;5138376;27;20066;-37
2022/05/13 02:23:15;;;;;;;4.20;1.55;;;23.60;35.40;;;;;;5138619;27;20023;-41
2022/05/13 02:25:43;;;;;;;4.85;1.40;;;23.60;35.40;;;;;;5136616;27;20504;-37
2022/05/13 02:28:09;;;;;;;3.75;1.35;;;23.60;35.40;;;;;;5138288;27;20491;-39
2022/05/13 02:30:34;;;;;;;3.50;1.33;;;23.50;35.40;;;;;;5136712;27;20110;-38
2022/05/13 02:33:00;;;;;;;4.57;1.48;;;23.60;35.50;;;;;;5137001;27;20087;-37
2022/05/13 02:35:27;;;;;;;4.05;1.90;;;23.60;35.50;;;;;;5136809;27;20465;-40
2022/05/13 02:37:53;;;;;;;4.00;1.33;;;23.60;35.60;;;;;;5136898;27;20032;-37
2022/05/13 02:40:20;;;;;;;4.25;1.52;;;23.60;35.60;;;;;;5137524;27;20488;-37
2022/05/13 02:42:46;;;;;;;4.13;1.60;;;23.60;35.70;;;;;;5138470;27;20029;-39
2022/05/13 02:45:12;;;;;;;4.43;1.50;;;23.60;35.70;;;;;;5137927;27;20015;-37
2022/05/13 02:47:39;;;;;;;3.92;1.52;;;23.60;35.70;;;;;;5135964;27;20476;-39
2022/05/13 02:50:17;;;;;;;4.88;1.50;;;23.50;35.70;;;;;;5137617;27;20110;-38
2022/05/13 02:52:44;;;;;;;3.30;1.35;;;23.50;35.70;;;;;;5137827;27;20031;-37
2022/05/13 02:55:10;;;;;;;4.63;1.42;;;23.60;35.80;;;;;;5137233;27;20014;-39
2022/05/13 02:57:36;;;;;;;4.78;1.48;;;23.50;35.80;;;;;;5137561;27;20015;-38
2022/05/13 03:00:03;;;;;;;4.22;1.30;;;23.50;35.80;;;;;;5137730;27;20007;-38
2022/05/13 03:02:29;;;;;;;5.25;1.73;;;23.50;35.80;;;;;;5138058;27;20093;-40
2022/05/13 03:04:55;;;;;;;5.93;1.70;;;23.50;35.90;;;;;;5137507;27;20512;-41
2022/05/13 03:07:21;;;;;;;4.05;1.50;;;23.50;35.90;;;;;;5137399;27;20020;-38
2022/05/13 03:09:47;;;;;;;4.85;1.60;;;23.50;35.90;;;;;;5135983;27;20019;-40
2022/05/13 03:12:12;;;;;;;5.68;1.50;;;23.50;36.00;;;;;;5137626;27;20019;-38
2022/05/13 03:14:39;;;;;;;4.35;1.67;;;23.50;36.00;;;;;;5137241;27;20078;-39
2022/05/13 03:17:05;;;;;;;4.57;1.83;;;23.50;36.00;;;;;;5137311;27;20031;-38
2022/05/13 03:19:31;;;;;;;3.80;1.40;;;23.50;36.00;;;;;;5137006;27;20011;-40
2022/05/13 03:21:57;;;;;;;4.57;1.60;;;23.50;36.10;;;;;;5136903;27;20043;-40
2022/05/13 03:24:24;;;;;;;4.05;1.40;;;23.50;36.10;;;;;;5136336;27;20064;-39
2022/05/13 03:26:49;;;;;;;3.92;1.50;;;23.50;36.20;;;;;;5136887;27;20011;-39
2022/05/13 03:29:15;;;;;;;5.38;1.75;;;23.50;36.10;;;;;;5137688;27;20102;-39
2022/05/13 03:31:41;;;;;;;5.00;1.40;;;23.50;36.20;;;;;;5137898;27;20023;-38
2022/05/13 03:34:07;;;;;;;3.95;1.55;;;23.50;36.20;;;;;;5137418;27;20098;-40
2022/05/13 03:36:34;;;;;;;5.75;1.80;;;23.40;36.30;;;;;;5135070;27;20496;-38
2022/05/13 03:39:00;;;;;;;5.18;1.70;;;23.40;36.20;;;;;;5137156;27;20019;-38
2022/05/13 03:41:26;;;;;;;4.90;1.63;;;23.50;36.30;;;;;;5135708;27;20007;-38
2022/05/13 03:43:52;;;;;;;6.88;1.70;;;23.50;36.30;;;;;;5136332;27;20022;-38
2022/05/13 03:46:18;;;;;;;3.63;1.50;;;23.40;36.30;;;;;;5136759;27;20033;-38
2022/05/13 03:48:44;;;;;;;5.30;1.67;;;23.40;36.30;;;;;;5137555;27;20042;-39
2022/05/13 03:51:10;;;;;;;3.47;1.27;;;23.40;36.40;;;;;;5136614;27;20023;-38
2022/05/13 03:53:37;;;;;;;4.45;1.50;;;23.40;36.40;;;;;;5136561;27;20064;-37
2022/05/13 03:56:03;;;;;;;5.05;1.83;;;23.40;36.50;;;;;;5118326;27;20015;-37
2022/05/13 03:58:30;;;;;;;7.00;1.63;;;23.40;36.50;;;;;;5138808;27;20094;-38
2022/05/13 04:00:56;;;;;;;4.38;1.80;;;23.40;36.60;;;;;;5140411;27;20022;-42
2022/05/13 04:03:22;;;;;;;5.28;1.58;;;23.40;36.60;;;;;;5141612;27;20023;-38
2022/05/13 04:11:18;;;;;;;4.82;1.60;;;23.40;36.70;;;;;;5140391;28;20036;-38
2022/05/13 04:16:29;;;;;;;5.10;1.60;;;23.40;36.80;;;;;;5136387;28;20031;-38
2022/05/13 04:18:58;;;;;;;4.20;1.42;;;23.40;36.80;;;;;;5136300;27;20020;-38
2022/05/13 04:21:28;;;;;;;4.40;1.45;;;23.40;36.90;;;;;;5135525;27;20122;-37
2022/05/13 04:23:55;;;;;;;5.55;1.67;;;23.40;37.00;;;;;;5137326;27;20011;-38
2022/05/13 04:26:21;;;;;;;4.38;1.52;;;23.40;37.50;;;;;;5135754;28;20034;-38
2022/05/13 04:28:48;;;;;;;4.13;1.50;;;23.40;37.00;;;;;;5136436;27;20015;-40
2022/05/13 04:31:15;;;;;;;6.10;2.03;;;23.40;37.00;;;;;;5135367;28;20034;-38
2022/05/13 04:33:41;;;;;;;5.05;1.52;;;23.40;37.00;;;;;;5136906;27;20106;-37
2022/05/13 04:36:07;;;;;;;5.18;1.70;;;23.40;37.10;;;;;;5136298;28;20489;-38
2022/05/13 04:38:33;;;;;;;4.32;1.70;;;23.40;37.00;;;;;;5137695;28;20473;-39
2022/05/13 04:42:49;;;;;;;4.90;2.13;;;23.40;37.00;;;;;;5137076;28;20007;-39
2022/05/13 04:43:46;;;;;;;4.63;1.42;;;23.40;37.00;;;;;;5137623;28;20027;-39
2022/05/13 04:46:12;;;;;;;4.88;1.80;;;23.40;37.10;;;;;;5137519;28;20090;-37
2022/05/13 04:48:39;;;;;;;5.40;1.80;;;23.40;37.00;;;;;;5138522;27;20019;-39
2022/05/13 04:51:05;;;;;;;3.35;1.60;;;23.40;37.10;;;;;;5138722;27;20496;-38
2022/05/13 04:53:35;;;;;;;5.18;1.50;;;23.40;37.10;;;;;;5139730;27;20015;-38
2022/05/13 04:56:02;;;;;;;4.18;1.60;;;23.40;37.20;;;;;;5143184;27;20380;-40
2022/05/13 04:58:28;;;;;;;4.53;1.52;;;23.40;37.20;;;;;;5143626;27;20042;-38
2022/05/13 05:00:55;;;;;;;5.85;2.00;;;23.40;37.20;;;;;;5141605;27;20023;-37
2022/05/13 05:03:22;;;;;;;5.53;1.80;;;23.40;37.30;;;;;;5142971;27;20034;-38
2022/05/13 05:05:48;;;;;;;4.38;1.73;;;23.40;37.30;;;;;;5142366;27;20086;-37
2022/05/13 05:08:14;;;;;;;5.97;1.80;;;23.40;37.40;;;;;;5143431;27;20538;-41
2022/05/13 05:10:41;;;;;;;6.63;1.50;;;23.40;37.30;;;;;;5143267;27;20023;-40
2022/05/13 05:13:07;;;;;;;8.52;1.85;;;23.40;37.50;;;;;;5143584;27;20010;-41
2022/05/13 05:15:33;;;;;;;5.13;1.67;;;23.40;38.20;;;;;;5142433;27;20023;-39
2022/05/13 05:18:00;;;;;;;4.35;1.70;;;23.40;37.50;;;;;;5143483;27;20134;-38
2022/05/13 05:20:26;;;;;;;5.97;1.70;;;23.40;37.50;;;;;;5141681;27;20015;-39
2022/05/13 05:22:52;;;;;;;5.53;1.90;;;23.40;37.50;;;;;;5141844;27;20031;-38
2022/05/13 05:25:19;;;;;;;6.53;1.92;;;23.40;37.50;;;;;;5139902;27;20011;-37
2022/05/13 05:27:45;;;;;;;6.18;1.98;;;23.40;37.50;;;;;;5141951;27;20368;-38
2022/05/13 05:30:12;;;;;;;4.25;1.75;;;23.50;37.60;;;;;;5141425;27;20035;-38
2022/05/13 05:32:38;;;;;;;4.07;1.80;;;23.40;37.50;;;;;;5140865;27;20011;-37
2022/05/13 05:35:10;;;;;;;6.65;1.67;;;23.50;37.60;;;;;;5141404;27;20381;-39
2022/05/13 05:37:36;;;;;;;5.07;1.55;;;23.50;37.60;;;;;;5140327;27;20007;-38
2022/05/13 05:40:03;;;;;;;4.63;1.70;;;23.50;37.60;;;;;;5120950;27;20483;-37
2022/05/13 05:42:29;;;;;;;6.45;1.73;;;23.50;37.60;;;;;;5138011;27;20021;-39
2022/05/13 05:44:55;;;;;;;4.93;1.90;;;23.50;37.70;;;;;;5138767;27;20019;-38
2022/05/13 05:47:24;;;;;;;3.78;1.58;;;23.50;37.60;;;;;;5137146;27;20022;-37
2022/05/13 05:49:50;;;;;;;5.78;2.10;;;23.60;37.70;;;;;;5136395;27;20023;-37
2022/05/13 05:52:17;;;;;;;4.93;1.63;;;23.60;37.30;;;;;;5137898;27;20022;-37
2022/05/13 05:57:27;;;;;;;4.38;1.90;;;23.80;37.10;;;;;;5137079;27;20030;-38
2022/05/13 05:59:53;;;;;;;4.10;1.60;;;24.00;36.90;;;;;;5139641;27;20041;-41
2022/05/13 06:02:20;;;;;;;3.67;1.50;;;24.00;36.70;;;;;;5139469;27;20463;-40
2022/05/13 06:04:46;;;;;;;6.93;2.00;;;24.10;36.50;;;;;;5120457;27;20110;-37
2022/05/13 06:07:15;;;;;;;5.90;1.92;;;24.20;36.40;;;;;;5135729;27;20015;-39
2022/05/13 06:09:41;;;;;;;8.18;2.40;;;24.30;36.30;;;;;;5137915;27;20042;-38
2022/05/13 06:12:08;;;;;;;4.65;1.65;;;24.40;36.30;;;;;;5137829;27;20024;-38
2022/05/13 06:14:34;;;;;;;6.03;2.10;;;24.40;36.20;;;;;;5136616;27;20015;-37
2022/05/13 06:17:00;;;;;;;6.80;2.38;;;24.50;36.10;;;;;;5134220;27;20015;-38
2022/05/13 06:19:26;;;;;;;5.65;2.00;;;24.60;36.10;;;;;;5133832;27;20015;-38
2022/05/13 06:21:51;;;;;;;20.67;3.58;;;24.60;36.00;;;;;;5133501;27;20377;-38
2022/05/13 06:24:19;;;;;;;33.28;3.20;;;24.00;39.00;;;;;;5131806;27;20067;-37
2022/05/13 06:26:48;;;;;;;33.45;3.53;;;23.00;42.60;;;;;;5134151;27;20473;-37
2022/05/13 06:29:14;;;;;;;22.45;3.15;;;22.50;43.80;;;;;;5134514;27;20019;-37
2022/05/13 06:31:40;;;;;;;18.98;2.63;;;22.10;44.20;;;;;;5134695;27;20015;-37
2022/05/13 06:34:05;;;;;;;16.95;2.55;;;21.90;44.60;;;;;;5135493;27;20099;-37
2022/05/13 06:36:31;;;;;;;17.52;3.30;;;22.30;43.40;;;;;;5134390;27;20023;-38
2022/05/13 06:38:58;;;;;;;14.35;2.80;;;21.90;44.50;;;;;;5133998;27;20020;-37
2022/05/13 06:41:24;;;;;;;17.08;3.13;;;21.80;44.80;;;;;;5133813;27;20019;-39
2022/05/13 06:43:50;;;;;;;12.98;2.10;;;21.80;44.70;;;;;;5135394;27;20699;-38
2022/05/13 06:46:16;;;;;;;10.40;2.30;;;21.90;44.40;;;;;;5133412;27;20481;-38
2022/05/13 06:48:41;;;;;;;12.23;2.28;;;22.00;44.30;;;;;;5134901;27;20015;-38
2022/05/13 06:51:07;;;;;;;10.77;2.17;;;22.20;43.90;;;;;;5135091;27;20120;-38
2022/05/13 06:53:33;;;;;;;11.20;2.13;;;22.40;43.50;;;;;;5133781;27;20521;-39
2022/05/13 06:55:58;;;;;;;9.35;1.92;;;22.30;43.50;;;;;;5134164;27;20015;-38
2022/05/13 06:58:24;;;;;;;11.13;1.73;;;22.10;44.50;;;;;;5134967;27;20015;-39
2022/05/13 07:00:50;;;;;;;9.75;1.55;;;22.10;44.10;;;;;;5116181;27;20108;-38
2022/05/13 07:03:17;;;;;;;13.68;2.15;;;22.10;43.90;;;;;;5133533;27;20026;-40
2022/05/13 07:05:43;;;;;;;10.98;2.25;;;22.30;44.00;;;;;;5134910;27;20022;-39
2022/05/13 07:08:09;;;;;;;14.60;1.92;;;22.50;43.00;;;;;;5116222;27;20019;-38
2022/05/13 07:10:37;;;;;;;11.18;2.22;;;22.20;43.80;;;;;;5133709;27;20086;-39
2022/05/13 07:13:06;;;;;;;22.45;2.38;;;22.20;44.00;;;;;;5133764;27;20030;-38
2022/05/13 07:15:32;;;;;;;28.20;2.90;;;22.50;44.30;;;;;;5133163;27;20015;-38
2022/05/13 07:17:58;;;;;;;22.15;2.88;;;22.40;45.00;;;;;;5132042;27;20015;-39
2022/05/13 07:20:26;;;;;;;20.45;2.70;;;22.60;44.40;;;;;;5132526;27;20354;-38
2022/05/13 07:22:53;;;;;;;21.55;2.50;;;22.80;43.90;;;;;;5134343;27;20056;-41
2022/05/13 07:25:19;;;;;;;19.35;2.28;;;23.00;43.80;;;;;;5132811;27;20111;-39
2022/05/13 07:27:44;;;;;;;18.02;2.33;;;23.10;42.80;;;;;;5134297;27;20058;-40
2022/05/13 07:30:10;;;;;;;8.70;1.70;;;23.30;42.40;;;;;;5134061;27;20035;-39
2022/05/13 07:32:36;;;;;;;13.68;2.38;;;23.20;41.90;;;;;;5132983;27;20102;-39
2022/05/13 07:35:03;;;;;;;13.02;1.98;;;23.00;42.30;;;;;;5132511;27;20111;-39
2022/05/13 07:37:29;;;;;;;9.27;2.22;;;23.10;42.60;;;;;;5134180;27;20014;-38
2022/05/13 07:42:38;;;;;;;7.70;1.58;;;23.60;41.40;;;;;;5134103;27;20026;-39
2022/05/13 07:45:04;;;;;;;10.77;2.15;;;23.80;40.70;;;;;;5132327;27;20020;-38
2022/05/13 07:47:30;;;;;;;10.90;1.65;;;23.90;40.70;;;;;;5134411;27;20010;-40
2022/05/13 07:49:56;;;;;;;8.63;1.55;;;24.00;40.00;;;;;;5133864;27;20526;-38
2022/05/13 07:52:24;;;;;;;9.77;1.52;;;24.10;40.10;;;;;;5134023;27;20031;-37
2022/05/13 07:54:49;;;;;;;9.48;1.60;;;24.40;39.60;;;;;;5133581;27;20019;-37
2022/05/13 07:57:15;;;;;;;8.27;1.63;;;24.10;39.60;;;;;;5133854;27;20474;-37
2022/05/13 08:02:25;;;;;;;8.73;1.70;;;24.00;39.90;;;;;;5132167;27;20141;-46
2022/05/13 08:04:51;;;;;;;7.32;1.33;;;24.30;39.10;;;;;;5132422;27;20020;-37
2022/05/13 08:07:18;;;;;;;7.85;1.48;;;24.40;38.80;;;;;;5132312;27;20418;-37
2022/05/13 08:09:44;;;;;;;14.68;2.35;;;24.60;38.10;;;;;;5132161;27;20029;-37
2022/05/13 08:12:10;;;;;;;10.48;1.48;;;24.90;37.30;;;;;;5132558;27;20337;-36
2022/05/13 08:14:36;;;;;;;12.80;1.40;;;25.20;36.80;;;;;;5130671;28;20434;-37
2022/05/13 08:17:02;;;;;;;10.82;1.40;;;25.70;36.10;;;;;;5131843;28;20050;-36
2022/05/13 08:19:29;;;;;;;11.82;1.52;;;26.10;35.40;;;;;;5132379;28;20034;-37
2022/05/13 08:21:54;;;;;;;12.98;2.08;;;25.90;35.20;;;;;;5133372;27;20450;-37
2022/05/13 08:24:20;;;;;;;15.00;2.00;;;25.90;35.40;;;;;;5131821;28;20106;-37
2022/05/13 08:26:46;;;;;;;9.60;1.60;;;25.80;35.40;;;;;;5133238;27;20019;-37
2022/05/13 08:29:11;;;;;;;13.48;2.25;;;25.70;35.60;;;;;;5133321;27;20526;-37
2022/05/13 08:31:37;;;;;;;16.20;2.00;;;25.40;35.60;;;;;;5118759;27;20042;-37
2022/05/13 08:34:03;;;;;;;12.23;2.10;;;25.40;35.90;;;;;;5137469;27;20101;-36
2022/05/13 08:36:29;;;;;;;15.20;1.80;;;25.30;36.00;;;;;;5136248;27;20095;-36
2022/05/13 08:38:55;;;;;;;9.48;1.77;;;25.20;35.60;;;;;;5119252;27;20468;-36
2022/05/13 08:41:38;;;;;;;14.05;1.40;;;23.90;36.90;;;;;;5136169;27;20517;-36
2022/05/13 08:44:07;;;;;;;10.95;1.92;;;23.90;37.80;;;;;;5136220;27;20052;-36
2022/05/13 08:46:39;;;;;;;12.93;1.50;;;23.80;37.30;;;;;;5136431;27;20027;-36
2022/05/13 08:49:23;;;;;;;10.15;1.55;;;23.80;37.30;;;;;;5137068;27;20011;-36
2022/05/13 08:54:56;;;;;;;9.63;1.85;;;22.70;40.00;;;;;;5136650;27;20046;-38
2022/05/13 08:57:22;;;;;;;10.02;1.70;;;23.00;38.70;;;;;;5134956;27;20035;-37
2022/05/13 09:00:08;;;;;;;10.48;1.77;;;23.20;38.20;;;;;;5136232;27;20469;-39
2022/05/13 09:02:36;;;;;;;6.35;1.30;;;23.10;38.50;;;;;;5136521;27;20084;-38
2022/05/13 09:05:05;;;;;;;8.85;1.40;;;23.40;37.70;;;;;;5101554;27;20068;-38
2022/05/13 09:07:31;;;;;;;8.43;1.42;;;23.30;37.60;;;;;;5117881;27;20051;-39
2022/05/13 09:10:02;;;;;;;13.77;1.70;;;23.40;37.10;;;;;;5133933;27;20118;-38
2022/05/13 09:12:53;;;;;;;19.52;2.17;;;23.40;37.70;;;;;;5136621;27;20046;-39
2022/05/13 09:15:25;;;;;;;12.55;1.65;;;23.70;37.50;;;;;;5120776;27;20699;-38
2022/05/13 09:18:20;;;;;;;9.63;1.60;;;23.80;36.70;;;;;;5135974;27;20043;-39
2022/05/13 09:20:59;;;;;;;16.05;1.70;;;22.90;38.70;;;;;;5133144;27;20538;-39
2022/05/13 09:23:25;;;;;;;13.35;1.60;;;23.00;39.40;;;;;;5136058;27;20019;-39
2022/05/13 09:26:13;;;;;;;7.22;1.60;;;23.30;38.60;;;;;;5135548;28;20023;-39
2022/05/13 09:28:58;;;;;;;12.13;1.70;;;23.50;38.40;;;;;;5135666;27;20228;-39
2022/05/13 09:31:23;;;;;;;11.73;1.73;;;23.20;39.00;;;;;;5120985;28;20072;-40
2022/05/13 09:33:52;;;;;;;12.00;1.90;;;23.20;38.20;;;;;;5118207;28;20020;-43
2022/05/13 09:36:23;;;;;;;11.43;1.65;;;23.50;37.70;;;;;;5137100;27;20094;-39
2022/05/13 09:38:57;;;;;;;14.27;1.65;;;23.80;37.50;;;;;;5136361;28;20012;-41
2022/05/13 09:41:32;;;;;;;10.70;1.48;;;23.80;37.80;;;;;;5136688;27;20042;-42
2022/05/13 09:44:26;;;;;;;6.65;1.23;;;24.00;37.30;;;;;;5135342;28;20015;-40
2022/05/13 09:47:15;;;;;;;11.25;1.38;;;24.10;37.20;;;;;;5134067;27;20073;-39
2022/05/13 09:49:46;;;;;;;8.85;1.45;;;24.00;37.30;;;;;;5136907;27;20072;-39
2022/05/13 09:52:17;;;;;;;10.13;1.50;;;24.10;37.10;;;;;;5118745;28;20020;-39
2022/05/13 09:54:47;;;;;;;10.30;2.05;;;24.20;36.90;;;;;;5134549;28;20007;-39
2022/05/13 09:57:29;;;;;;;8.38;1.33;;;24.30;37.00;;;;;;5134723;28;20068;-38
2022/05/13 10:00:06;;;;;;;15.27;1.85;;;24.40;36.60;;;;;;5136603;27;20011;-39
2022/05/13 10:02:35;;;;;;;10.93;1.70;;;24.40;36.40;;;;;;5136090;28;20015;-39
2022/05/13 10:05:16;;;;;;;15.02;2.20;;;24.20;36.30;;;;;;5139038;27;20086;-40
2022/05/13 10:07:53;;;;;;;11.30;1.70;;;24.00;36.20;;;;;;5138133;27;20109;-41
2022/05/13 10:16:00;;;;;;;9.13;1.80;;;23.80;35.90;;;;;;5136078;28;20058;-39
2022/05/13 10:18:30;;;;;;;9.98;1.70;;;23.70;35.80;;;;;;5135501;28;20012;-40
2022/05/13 10:21:09;;;;;;;6.97;1.50;;;23.60;35.90;;;;;;5095054;27;1176355;-40
2022/05/13 10:23:36;;;;;;;5.43;1.17;;;23.60;36.10;;;;;;5135669;27;20094;-41
2022/05/13 10:26:14;;;;;;;8.85;1.98;;;23.50;36.10;;;;;;5135611;27;20401;-40
2022/05/13 10:28:45;;;;;;;10.93;1.67;;;23.50;36.10;;;;;;5137351;27;20023;-40
2022/05/13 10:31:14;;;;;;;9.43;1.50;;;23.50;36.10;;;;;;5119864;27;20019;-40
2022/05/13 10:34:02;;;;;;;5.47;1.30;;;23.40;36.20;;;;;;5119106;27;20038;-42
2022/05/13 10:36:45;;;;;;;5.82;1.55;;;23.20;36.50;;;;;;5137028;27;20550;-39
2022/05/13 10:39:15;;;;;;;3.92;1.15;;;23.00;36.90;;;;;;5135456;27;20023;-40
2022/05/13 10:41:47;;;;;;;15.30;1.30;;;23.00;36.90;;;;;;5101718;27;20493;-39
2022/05/13 10:44:35;;;;;;;5.80;1.40;;;23.10;36.90;;;;;;5135602;27;20015;-40
2022/05/13 10:47:34;;;;;;;7.78;1.38;;;23.10;36.50;;;;;;5136820;27;20099;-39
2022/05/13 10:49:59;;;;;;;6.35;1.30;;;23.10;36.50;;;;;;5129490;27;20034;-39
2022/05/13 10:52:34;;;;;;;19.42;2.10;;;23.20;37.10;;;;;;5132074;27;20362;-39
2022/05/13 10:55:00;;;;;;;15.05;2.08;;;23.60;38.50;;;;;;5133077;27;20012;-39
2022/05/13 10:57:39;;;;;;;11.55;1.92;;;23.70;38.70;;;;;;5134227;27;20518;-39
2022/05/13 11:00:09;;;;;;;15.63;1.90;;;23.90;38.40;;;;;;5131992;27;20007;-38
2022/05/13 11:02:40;;;;;;;;;;;24.10;38.90;;;;;;5133605;27;20074;-44
2022/05/13 11:05:25;;;;;;;15.80;1.60;;;24.10;39.30;;;;;;5133280;27;20340;-39
2022/05/13 11:08:27;;;;;;;12.70;2.28;;;24.10;38.90;;;;;;5134169;27;20030;-39
2022/05/13 11:11:00;;;;;;;18.85;2.00;;;24.10;39.40;;;;;;5132839;27;20489;-39
2022/05/13 11:13:53;;;;;;;12.40;1.90;;;24.30;39.30;;;;;;5114876;27;20003;-39
2022/05/13 11:16:34;;;;;;;20.02;2.63;;;24.40;38.60;;;;;;5133364;27;20015;-39
2022/05/13 11:19:44;;;;;;;16.52;2.67;;;24.30;39.10;;;;;;5132785;27;20033;-39
2022/05/13 11:22:37;;;;;;;11.05;1.88;;;24.40;39.10;;;;;;5049077;28;20049;-38
2022/05/13 11:28:35;;;;;;;10.73;2.00;;;23.80;39.30;;;;;;5049347;28;20059;-39
2022/05/13 11:31:10;;;;;;;12.65;1.75;;;24.20;39.50;;;;;;5049477;28;20483;-38
2022/05/13 11:33:44;;;;;;;11.98;1.77;;;24.30;39.20;;;;;;5049397;28;20036;-39
2022/05/13 11:36:28;;;;;;;15.93;1.90;;;24.30;38.60;;;;;;5032126;28;20131;-39
2022/05/13 11:39:03;;;;;;;18.35;2.47;;;24.40;38.90;;;;;;5047587;28;20104;-37
2022/05/13 11:41:43;;;;;;;17.45;1.75;;;24.30;38.60;;;;;;5048303;28;20242;-37
2022/05/13 11:44:09;;;;;;;15.77;2.70;;;24.10;38.70;;;;;;5034496;28;20028;-38
2022/05/13 11:46:53;;;;;;;18.33;2.35;;;23.90;39.00;;;;;;5033972;28;20037;-37
2022/05/13 11:49:29;;;;;;;26.45;3.20;;;24.00;39.00;;;;;;5050310;28;20025;-37
2022/05/13 11:51:56;;;;;;;31.00;3.25;;;23.60;40.30;;;;;;5040452;28;20029;-37
2022/05/13 11:54:26;;;;;;;19.10;2.60;;;23.80;39.50;;;;;;5134006;27;20030;-37
2022/05/13 11:57:19;;;;;;;19.75;3.53;;;23.80;38.90;;;;;;5133030;27;20022;-36
2022/05/13 11:59:46;;;;;;;17.20;2.40;;;23.60;39.30;;;;;;5134068;27;20038;-36
2022/05/13 12:02:32;;;;;;;13.68;2.22;;;23.80;39.10;;;;;;5132835;27;20015;-36
2022/05/13 12:05:30;;;;;;;17.85;2.67;;;24.00;38.60;;;;;;5132661;27;20022;-36
2022/05/13 12:08:07;;;;;;;16.67;2.75;;;24.10;38.50;;;;;;5033103;28;20053;-37
2022/05/13 12:10:51;;;;;;;15.40;1.85;;;24.00;37.70;;;;;;5049667;28;20068;-36
2022/05/13 12:13:48;;;;;;;12.02;1.80;;;24.10;38.10;;;;;;5049367;28;20033;-36
2022/05/13 12:16:47;;;;;;;19.23;2.20;;;24.20;38.80;;;;;;5019493;28;20036;-36
2022/05/13 12:19:39;;;;;;;12.88;1.63;;;24.30;38.20;;;;;;5050063;28;20017;-36
2022/05/13 12:22:11;;;;;;;19.50;1.90;;;23.80;38.00;;;;;;5018438;28;20048;-36
2022/05/13 12:25:05;;;;;;;10.55;1.52;;;23.90;38.70;;;;;;5049642;28;20100;-36
2022/05/13 12:27:36;;;;;;;10.82;1.40;;;24.10;38.50;;;;;;5032081;28;20025;-37
2022/05/13 12:30:11;;;;;;;9.77;1.55;;;24.20;38.10;;;;;;5049803;28;20041;-37
2022/05/13 12:32:40;;;;;;;9.00;1.38;;;24.10;38.20;;;;;;5050974;28;20041;-38
2022/05/13 12:37:56;;;;;;;13.65;1.67;;;24.40;37.00;;;;;;5051179;28;19907;-37
2022/05/13 12:40:21;;;;;;;13.68;1.52;;;24.60;36.80;;;;;;5050587;28;20596;-37
2022/05/13 12:42:47;;;;;;;13.85;1.73;;;24.60;36.50;;;;;;5067424;28;20118;-37
2022/05/13 12:45:41;;;;;;;13.00;1.50;;;24.80;36.50;;;;;;5135617;28;20019;-37
2022/05/13 12:48:07;;;;;;;9.77;1.50;;;24.80;36.40;;;;;;5134816;27;20033;-37
2022/05/13 12:51:03;;;;;;;10.70;1.90;;;24.80;36.20;;;;;;5134646;28;20015;-37
2022/05/13 12:53:32;;;;;;;10.27;1.50;;;24.90;36.20;;;;;;5133976;28;20059;-38
2022/05/13 12:56:37;;;;;;;7.72;1.40;;;24.90;36.10;;;;;;5134591;27;20007;-36
2022/05/13 12:59:13;;;;;;;7.60;1.30;;;24.90;36.00;;;;;;5127728;27;20035;-36
2022/05/13 13:01:42;;;;;;;12.85;1.65;;;25.00;36.00;;;;;;5133078;28;20048;-39
2022/05/13 13:04:09;;;;;;;11.23;1.70;;;25.00;36.00;;;;;;5116060;28;20389;-36
2022/05/13 13:06:39;;;;;;;9.20;1.40;;;25.00;36.00;;;;;;5134416;27;20026;-37
2022/05/13 13:09:05;;;;;;;10.20;1.50;;;25.00;36.00;;;;;;5135033;27;20018;-36
2022/05/13 13:11:34;;;;;;;11.20;2.15;;;25.00;35.90;;;;;;5132189;28;20019;-37
2022/05/13 13:14:19;;;;;;;10.10;1.52;;;25.00;36.00;;;;;;5132914;27;20162;-37
2022/05/13 13:17:07;;;;;;;10.25;1.55;;;25.00;35.90;;;;;;5117829;27;20094;-36
2022/05/13 13:19:32;;;;;;;10.50;1.80;;;25.00;35.90;;;;;;5136745;27;20007;-36
2022/05/13 13:22:04;;;;;;;8.25;1.30;;;25.00;35.90;;;;;;5137414;27;20461;-36
2022/05/13 13:24:32;;;;;;;7.95;1.27;;;25.00;35.90;;;;;;5137363;27;20019;-36
2022/05/13 13:26:59;;;;;;;7.27;1.40;;;25.00;35.90;;;;;;5136857;27;20092;-36
2022/05/13 13:29:36;;;;;;;9.50;1.75;;;25.00;35.90;;;;;;5137334;27;20045;-36
2022/05/13 13:32:05;;;;;;;9.52;1.58;;;25.00;35.90;;;;;;5120477;27;20022;-36